createdAt,value
2023-07-03T00:01:08.344Z,87.84
2023-07-03T00:03:55.312Z,88.07
2023-07-03T00:06:42.274Z,88.18
2023-07-03T00:09:29.828Z,88.41
2023-07-03T00:12:16.623Z,88.52
2023-07-03T00:15:04.049Z,88.85
2023-07-03T00:17:51.044Z,88.96
2023-07-03T00:20:37.477Z,89.08
2023-07-03T00:23:26.071Z,89.49
2023-07-03T00:26:12.823Z,89.78
2023-07-03T00:28:59.844Z,89.97
2023-07-03T00:31:46.482Z,90.46
2023-07-03T00:34:33.414Z,90.26
2023-07-03T00:37:21.955Z,90.53
2023-07-03T00:40:11.346Z,90.77
2023-07-03T00:42:58.114Z,90.43
2023-07-03T00:45:46.457Z,91.04
2023-07-03T00:48:33.946Z,90.69
2023-07-03T00:51:20.595Z,90.54
2023-07-03T00:54:07.606Z,90.17
2023-07-03T00:56:54.835Z,89.97
2023-07-03T00:59:42.260Z,89.80
2023-07-03T01:02:41.559Z,89.66
2023-07-03T01:05:32.971Z,89.62
2023-07-03T01:08:20.524Z,89.30
2023-07-03T01:11:08.906Z,89.06
2023-07-03T01:14:00.790Z,88.64
2023-07-03T01:16:49.480Z,88.11
2023-07-03T01:19:39.640Z,87.85
2023-07-03T01:22:32.260Z,87.37
2023-07-03T01:25:23.114Z,87.18
2023-07-03T01:28:15.682Z,86.83
2023-07-03T01:31:08.058Z,86.35
2023-07-03T01:33:57.345Z,86.10
2023-07-03T01:36:44.774Z,85.81
2023-07-03T01:39:31.891Z,85.59
2023-07-03T01:42:23.120Z,85.58
2023-07-03T01:45:10.664Z,85.58
2023-07-03T01:47:58.201Z,85.49
2023-07-03T01:50:47.989Z,85.34
2023-07-03T01:53:49.946Z,85.40
2023-07-03T01:56:42.161Z,85.47
2023-07-03T01:59:30.406Z,85.57
2023-07-03T02:02:26.110Z,85.78
2023-07-03T02:05:19.000Z,85.78
2023-07-03T02:08:07.814Z,85.92
2023-07-03T02:10:55.483Z,86.13
2023-07-03T02:13:42.278Z,86.17
2023-07-03T02:16:30.263Z,86.16
2023-07-03T02:19:17.269Z,86.40
2023-07-03T02:22:04.659Z,86.40
2023-07-03T02:24:51.489Z,86.05
2023-07-03T02:27:39.660Z,85.88
2023-07-03T02:30:26.432Z,85.40
2023-07-03T02:33:13.239Z,85.49
2023-07-03T02:36:06.429Z,85.45
2023-07-03T02:38:53.131Z,85.12
2023-07-03T02:41:40.361Z,85.13
2023-07-03T02:44:28.234Z,85.11
2023-07-03T02:47:15.517Z,84.75
2023-07-03T02:50:08.292Z,84.96
2023-07-03T02:52:55.830Z,84.90
2023-07-03T02:55:42.985Z,84.84
2023-07-03T02:58:30.113Z,84.82
2023-07-03T03:01:17.712Z,85.05
2023-07-03T03:04:05.004Z,85.24
2023-07-03T03:06:52.293Z,85.33
2023-07-03T03:09:39.617Z,85.52
2023-07-03T03:12:26.364Z,85.73
2023-07-03T03:15:13.156Z,85.53
2023-07-03T03:18:00.010Z,85.58
2023-07-03T03:20:47.086Z,85.50
2023-07-03T03:23:33.770Z,85.42
2023-07-03T03:26:20.907Z,85.47
2023-07-03T03:29:08.243Z,85.15
2023-07-03T03:31:54.930Z,85.09
2023-07-03T03:34:41.740Z,84.79
2023-07-03T03:37:29.117Z,84.80
2023-07-03T03:40:19.167Z,84.49
2023-07-03T03:43:06.785Z,83.96
2023-07-03T03:45:59.082Z,83.59
2023-07-03T03:48:46.915Z,83.15
2023-07-03T03:51:34.808Z,82.63
2023-07-03T03:54:22.033Z,82.33
2023-07-03T03:57:08.629Z,81.76
2023-07-03T03:59:55.675Z,81.15
2023-07-03T04:02:42.524Z,80.93
2023-07-03T04:05:30.227Z,80.54
2023-07-03T04:08:16.817Z,80.14
2023-07-03T04:11:03.911Z,79.66
2023-07-03T04:13:50.736Z,78.94
2023-07-03T04:16:37.558Z,78.62
2023-07-03T04:19:29.076Z,78.63
2023-07-03T04:22:15.799Z,78.10
2023-07-03T04:25:02.944Z,78.04
2023-07-03T04:27:49.903Z,77.17
2023-07-03T04:30:39.216Z,76.25
2023-07-03T04:33:26.006Z,75.53
2023-07-03T04:36:13.720Z,74.64
2023-07-03T04:39:01.658Z,72.76
2023-07-03T04:41:48.056Z,71.89
2023-07-03T04:44:34.807Z,69.59
2023-07-03T04:47:21.748Z,68.53
2023-07-03T04:50:16.791Z,66.39
2023-07-03T04:53:04.447Z,64.74
2023-07-03T04:55:52.025Z,62.60
2023-07-03T04:58:39.911Z,60.45
2023-07-03T05:01:26.748Z,58.75
2023-07-03T05:04:13.370Z,57.58
2023-07-03T05:06:59.916Z,55.99
2023-07-03T05:09:46.740Z,53.42
2023-07-03T05:12:33.341Z,51.39
2023-07-03T05:15:20.935Z,50.81
2023-07-03T05:18:07.625Z,48.35
2023-07-03T05:20:54.285Z,46.25
2023-07-03T05:23:40.733Z,45.34
2023-07-03T05:26:27.318Z,44.07
2023-07-03T05:29:13.747Z,41.40
2023-07-03T05:32:02.144Z,41.31
2023-07-03T05:34:48.756Z,40.86
2023-07-03T05:37:37.330Z,38.96
2023-07-03T05:40:24.876Z,37.74
2023-07-03T05:43:14.162Z,37.81
2023-07-03T05:46:01.433Z,37.19
2023-07-03T05:48:48.683Z,35.85
2023-07-03T05:51:35.606Z,34.84
2023-07-03T05:54:22.336Z,33.75
2023-07-03T05:57:11.238Z,33.52
2023-07-03T06:00:00.208Z,33.39
2023-07-03T06:02:52.464Z,33.20
2023-07-03T06:05:39.160Z,31.41
2023-07-03T06:08:25.774Z,30.87
2023-07-03T06:11:13.089Z,30.40
2023-07-03T06:13:59.563Z,31.12
2023-07-03T06:16:49.698Z,30.47
2023-07-03T06:19:36.605Z,30.24
2023-07-03T06:22:23.662Z,29.81
2023-07-03T06:25:10.857Z,29.33
2023-07-03T06:27:57.462Z,29.19
2023-07-03T06:30:51.326Z,28.90
2023-07-03T06:33:38.746Z,28.41
2023-07-03T06:36:25.861Z,27.85
2023-07-03T06:39:12.875Z,27.54
2023-07-03T06:41:59.928Z,27.18
2023-07-03T06:44:46.703Z,26.74
2023-07-03T06:47:33.757Z,26.63
2023-07-03T06:50:20.253Z,26.56
2023-07-03T06:53:06.768Z,26.53
2023-07-03T06:55:59.362Z,26.65
2023-07-03T06:58:48.421Z,26.82
2023-07-03T07:01:35.317Z,26.75
2023-07-03T07:04:22.716Z,27.02
2023-07-03T07:07:09.495Z,26.84
2023-07-03T07:09:56.106Z,26.90
2023-07-03T07:12:42.712Z,26.83
2023-07-03T07:15:29.573Z,26.73
2023-07-03T07:18:16.177Z,26.57
2023-07-03T07:21:02.950Z,26.60
2023-07-03T07:23:59.155Z,26.19
2023-07-03T07:26:47.444Z,26.81
2023-07-03T07:29:35.035Z,26.46
2023-07-03T07:32:25.409Z,25.75
2023-07-03T07:35:12.409Z,26.14
2023-07-03T07:37:59.093Z,26.07
2023-07-03T07:40:45.890Z,26.34
2023-07-03T07:43:32.879Z,26.28
2023-07-03T07:46:20.410Z,25.79
2023-07-03T07:49:07.453Z,25.45
2023-07-03T07:51:55.107Z,24.98
2023-07-03T07:54:41.235Z,24.95
2023-07-03T07:57:30.099Z,25.31
2023-07-03T08:00:17.367Z,25.40
2023-07-03T08:03:07.294Z,24.99
2023-07-03T08:06:01.859Z,25.09
2023-07-03T08:08:51.237Z,24.77
2023-07-03T08:11:39.215Z,25.23
2023-07-03T08:14:26.777Z,25.34
2023-07-03T08:17:13.538Z,25.40
2023-07-03T08:20:00.707Z,25.11
2023-07-03T08:22:48.143Z,25.60
2023-07-03T08:25:35.405Z,25.32
2023-07-03T08:28:23.094Z,25.63
2023-07-03T08:31:09.780Z,25.55
2023-07-03T08:33:57.108Z,26.21
2023-07-03T08:39:33.805Z,27.01
2023-07-03T08:42:48.270Z,26.75
2023-07-03T08:45:44.237Z,26.63
2023-07-03T08:48:34.646Z,26.29
2023-07-03T08:51:27.303Z,25.70
2023-07-03T08:54:22.321Z,25.32
2023-07-03T08:57:12.214Z,25.35
2023-07-03T08:59:59.131Z,25.12
2023-07-03T09:03:01.400Z,25.11
2023-07-03T09:06:06.432Z,25.16
2023-07-03T09:09:28.428Z,26.36
2023-07-03T09:12:55.782Z,28.86
2023-07-03T09:16:13.885Z,30.07
2023-07-03T09:19:07.636Z,31.32
2023-07-03T09:21:59.741Z,32.54
2023-07-03T09:24:48.982Z,33.86
2023-07-03T09:27:35.641Z,35.13
2023-07-03T09:30:22.631Z,35.32
2023-07-03T09:33:10.214Z,34.46
2023-07-03T09:35:57.556Z,34.47
2023-07-03T09:38:45.635Z,34.51
2023-07-03T09:41:35.298Z,34.91
2023-07-03T09:44:23.376Z,36.44
2023-07-03T09:47:22.503Z,37.19
2023-07-03T09:50:09.977Z,37.62
2023-07-03T09:53:07.560Z,37.27
2023-07-03T09:56:02.592Z,37.53
2023-07-03T09:59:00.190Z,37.28
2023-07-03T10:07:41.179Z,36.48
2023-07-03T10:13:27.663Z,35.93
2023-07-03T10:16:16.012Z,36.08
2023-07-03T10:19:04.039Z,36.22
2023-07-03T10:21:53.266Z,36.86
2023-07-03T10:24:42.530Z,37.31
2023-07-03T10:27:30.519Z,38.53
2023-07-03T10:30:19.101Z,39.51
2023-07-03T10:33:14.967Z,40.01
2023-07-03T10:36:08.217Z,40.34
2023-07-03T10:39:19.965Z,40.59
2023-07-03T10:42:30.432Z,40.87
2023-07-03T10:45:18.094Z,41.33
2023-07-03T10:48:15.409Z,41.40
2023-07-03T10:51:24.001Z,39.41
2023-07-03T10:54:38.916Z,37.50
2023-07-03T10:57:48.766Z,36.14
2023-07-03T11:01:27.967Z,35.49
2023-07-03T11:04:26.278Z,32.63
2023-07-03T11:07:56.520Z,31.33
2023-07-03T11:10:58.749Z,31.62
2023-07-03T11:13:59.485Z,31.69
2023-07-03T11:24:31.138Z,33.69
2023-07-03T11:30:42.836Z,34.44
2023-07-03T11:37:03.344Z,33.80
2023-07-03T11:39:51.455Z,33.81
2023-07-03T11:45:28.556Z,34.06
2023-07-03T11:48:34.529Z,35.38
2023-07-03T11:51:35.197Z,36.04
2023-07-03T11:54:26.888Z,36.79
2023-07-03T11:57:49.956Z,37.45
2023-07-03T12:00:43.229Z,37.82
2023-07-03T12:03:50.301Z,38.17
2023-07-03T12:06:41.809Z,38.66
2023-07-03T12:09:32.356Z,38.68
2023-07-03T12:12:27.039Z,39.09
2023-07-03T12:15:14.841Z,39.12
2023-07-03T12:18:06.284Z,39.26
2023-07-03T12:21:01.265Z,38.81
2023-07-03T12:23:49.638Z,38.10
2023-07-03T12:26:51.270Z,38.16
2023-07-03T12:29:47.856Z,37.75
2023-07-03T12:32:36.920Z,38.38
2023-07-03T12:35:27.521Z,37.33
2023-07-03T12:38:14.266Z,37.47
2023-07-03T12:41:01.387Z,36.90
2023-07-03T12:43:59.944Z,37.48
2023-07-03T12:46:53.981Z,37.55
2023-07-03T12:49:50.021Z,37.27
2023-07-03T12:52:36.896Z,37.09
2023-07-03T12:55:28.559Z,36.81
2023-07-03T12:58:19.125Z,37.02
2023-07-03T13:01:07.675Z,37.18
2023-07-03T13:03:54.488Z,37.36
2023-07-03T13:06:44.519Z,37.60
2023-07-03T13:09:32.405Z,37.75
2023-07-03T13:12:23.059Z,37.49
2023-07-03T13:15:13.946Z,37.29
2023-07-03T13:18:16.834Z,37.13
2023-07-03T13:21:06.527Z,37.57
2023-07-03T13:23:54.114Z,37.83
2023-07-03T13:26:42.363Z,38.03
2023-07-03T13:29:33.049Z,37.76
2023-07-03T13:32:22.967Z,36.91
2023-07-03T13:35:09.421Z,36.85
2023-07-03T13:38:23.923Z,36.71
2023-07-03T13:41:12.268Z,37.12
2023-07-03T13:43:58.818Z,37.20
2023-07-03T13:46:48.762Z,37.04
2023-07-03T13:49:35.613Z,37.15
2023-07-03T13:52:22.406Z,37.55
2023-07-03T13:55:09.876Z,37.96
2023-07-03T13:57:57.584Z,38.31
2023-07-03T14:00:44.668Z,38.49
2023-07-03T14:03:31.251Z,38.54
2023-07-03T14:06:18.233Z,38.60
2023-07-03T14:09:05.968Z,38.15
2023-07-03T14:11:52.330Z,38.23
2023-07-03T14:14:39.461Z,38.69
2023-07-03T14:17:26.469Z,38.76
2023-07-03T14:20:13.714Z,38.47
2023-07-03T14:23:03.921Z,38.44
2023-07-03T14:25:51.273Z,38.50
2023-07-03T14:28:41.188Z,38.99
2023-07-03T14:31:28.923Z,37.83
2023-07-03T14:34:16.541Z,37.34
2023-07-03T14:37:04.809Z,37.10
2023-07-03T14:39:51.538Z,37.26
2023-07-03T14:42:38.410Z,36.44
2023-07-03T14:45:25.037Z,36.22
2023-07-03T14:48:12.303Z,36.34
2023-07-03T14:51:02.945Z,35.24
2023-07-03T14:53:49.509Z,35.51
2023-07-03T14:56:37.189Z,35.15
2023-07-03T14:59:25.040Z,35.51
2023-07-03T15:02:14.913Z,36.14
2023-07-03T15:05:02.094Z,36.20
2023-07-03T15:07:51.226Z,36.59
2023-07-03T15:10:39.789Z,36.61
2023-07-03T15:13:27.535Z,36.64
2023-07-03T15:16:16.366Z,36.78
2023-07-03T15:19:04.998Z,37.49
2023-07-03T15:21:51.315Z,37.79
2023-07-03T15:24:38.224Z,38.29
2023-07-03T15:27:26.489Z,38.65
2023-07-03T15:30:13.579Z,37.77
2023-07-03T15:33:02.149Z,37.69
2023-07-03T15:35:55.951Z,37.48
2023-07-03T15:38:43.120Z,37.63
2023-07-03T15:41:29.629Z,36.91
2023-07-03T15:44:19.894Z,37.12
2023-07-03T15:47:08.238Z,37.24
2023-07-03T15:49:56.596Z,36.95
2023-07-03T15:52:44.797Z,36.42
2023-07-03T15:55:31.236Z,35.83
2023-07-03T15:58:19.064Z,36.05
2023-07-03T16:01:17.876Z,35.66
2023-07-03T16:04:04.698Z,35.63
2023-07-03T16:06:51.170Z,36.03
2023-07-03T16:09:37.940Z,36.11
2023-07-03T16:12:24.487Z,36.38
2023-07-03T16:15:12.635Z,36.85
2023-07-03T16:18:00.990Z,37.01
2023-07-03T16:20:59.633Z,37.21
2023-07-03T16:23:46.419Z,37.41
2023-07-03T16:26:40.593Z,37.89
2023-07-03T16:29:28.371Z,37.82
2023-07-03T16:32:14.959Z,38.14
2023-07-03T16:35:01.271Z,38.10
2023-07-03T16:37:50.454Z,38.62
2023-07-03T16:40:37.336Z,38.59
2023-07-03T16:43:24.655Z,38.63
2023-07-03T16:46:14.892Z,38.91
2023-07-03T16:49:02.696Z,39.16
2023-07-03T16:51:48.951Z,39.35
2023-07-03T16:54:36.739Z,39.49
2023-07-03T16:57:23.224Z,39.75
2023-07-03T17:00:11.630Z,39.72
2023-07-03T17:02:58.322Z,39.64
2023-07-03T17:05:45.123Z,39.45
2023-07-03T17:08:31.704Z,39.36
2023-07-03T17:11:18.209Z,40.17
2023-07-03T17:14:04.904Z,40.48
2023-07-03T17:16:51.441Z,40.98
2023-07-03T17:19:37.804Z,41.38
2023-07-03T17:22:23.933Z,41.60
2023-07-03T17:25:10.367Z,41.91
2023-07-03T17:27:56.985Z,42.11
2023-07-03T17:30:43.719Z,42.11
2023-07-03T17:33:29.778Z,42.31
2023-07-03T17:36:16.175Z,42.65
2023-07-03T17:39:03.563Z,42.37
2023-07-03T17:41:50.113Z,42.69
2023-07-03T17:44:36.443Z,42.76
2023-07-03T17:47:23.082Z,43.26
2023-07-03T17:50:10.075Z,43.25
2023-07-03T17:52:56.479Z,43.23
2023-07-03T17:55:44.268Z,43.25
2023-07-03T17:58:30.724Z,43.51
2023-07-03T18:01:17.044Z,43.52
2023-07-03T18:04:03.917Z,43.96
2023-07-03T18:06:50.328Z,44.23
2023-07-03T18:09:36.886Z,44.34
2023-07-03T18:12:23.476Z,44.60
2023-07-03T18:15:12.439Z,44.89
2023-07-03T18:17:59.175Z,45.41
2023-07-03T18:20:46.219Z,45.74
2023-07-03T18:23:32.899Z,46.32
2023-07-03T18:26:19.125Z,46.99
2023-07-03T18:29:05.651Z,47.37
2023-07-03T18:31:52.073Z,47.79
2023-07-03T18:34:38.815Z,48.55
2023-07-03T18:37:27.057Z,49.26
2023-07-03T18:40:14.518Z,49.82
2023-07-03T18:43:00.725Z,50.26
2023-07-03T18:45:48.994Z,50.82
2023-07-03T18:48:36.669Z,50.87
2023-07-03T18:51:25.261Z,51.68
2023-07-03T18:54:11.813Z,52.08
2023-07-03T18:56:58.617Z,52.58
2023-07-03T18:59:46.676Z,52.86
2023-07-03T19:02:33.099Z,53.20
2023-07-03T19:05:20.203Z,53.60
2023-07-03T19:08:06.483Z,54.37
2023-07-03T19:10:52.881Z,54.65
2023-07-03T19:13:39.743Z,54.97
2023-07-03T19:16:26.465Z,55.26
2023-07-03T19:19:12.779Z,55.28
2023-07-03T19:22:00.977Z,55.78
2023-07-03T19:24:47.428Z,56.19
2023-07-03T19:27:34.074Z,56.63
2023-07-03T19:30:20.352Z,57.66
2023-07-03T19:33:06.523Z,58.35
2023-07-03T19:35:56.456Z,58.37
2023-07-03T19:38:43.967Z,58.84
2023-07-03T19:41:32.554Z,59.57
2023-07-03T19:44:19.130Z,60.10
2023-07-03T19:47:06.037Z,60.20
2023-07-03T19:49:55.489Z,60.75
2023-07-03T19:52:43.272Z,60.73
2023-07-03T19:55:29.442Z,60.77
2023-07-03T19:58:17.038Z,60.55
2023-07-03T20:01:03.772Z,60.38
2023-07-03T20:03:50.202Z,60.79
2023-07-03T20:06:36.444Z,60.66
2023-07-03T20:09:23.689Z,60.83
2023-07-03T20:12:10.060Z,60.79
2023-07-03T20:14:56.622Z,60.89
2023-07-03T20:17:45.396Z,60.78
2023-07-03T20:20:31.844Z,60.87
2023-07-03T20:23:18.332Z,61.25
2023-07-03T20:26:05.240Z,61.38
2023-07-03T20:28:51.286Z,61.50
2023-07-03T20:31:38.982Z,61.70
2023-07-03T20:34:26.959Z,61.90
2023-07-03T20:37:13.951Z,62.47
2023-07-03T20:40:01.498Z,62.41
2023-07-03T20:42:48.465Z,62.56
2023-07-03T20:45:34.938Z,63.14
2023-07-03T20:48:26.346Z,63.40
2023-07-03T20:51:12.833Z,64.14
2023-07-03T20:53:59.373Z,64.53
2023-07-03T20:56:46.735Z,64.97
2023-07-03T20:59:35.054Z,65.47
2023-07-03T21:02:21.405Z,66.37
2023-07-03T21:05:09.354Z,68.28
2023-07-03T21:07:55.646Z,70.30
2023-07-03T21:10:41.904Z,72.22
2023-07-03T21:13:28.199Z,73.64
2023-07-03T21:16:18.918Z,75.25
2023-07-03T21:19:10.969Z,75.56
2023-07-03T21:21:57.154Z,75.62
2023-07-03T21:24:43.518Z,75.79
2023-07-03T21:27:29.530Z,76.32
2023-07-03T21:30:16.629Z,76.86
2023-07-03T21:33:02.995Z,76.96
2023-07-03T21:35:52.994Z,77.52
2023-07-03T21:38:43.229Z,76.90
2023-07-03T21:41:33.532Z,76.95
2023-07-03T21:44:20.063Z,77.27
2023-07-03T21:47:06.331Z,77.75
2023-07-03T21:49:52.740Z,77.71
2023-07-03T21:52:39.614Z,77.66
2023-07-03T21:55:26.199Z,77.59
2023-07-03T21:58:12.530Z,77.99
2023-07-03T22:01:00.532Z,77.93
2023-07-03T22:03:46.834Z,78.14
2023-07-03T22:06:33.678Z,78.02
2023-07-03T22:09:32.577Z,78.15
2023-07-03T22:12:23.966Z,78.56
2023-07-03T22:15:12.145Z,78.64
2023-07-03T22:17:58.587Z,78.76
2023-07-03T22:20:51.882Z,79.01
2023-07-03T22:23:38.117Z,78.80
2023-07-03T22:26:24.818Z,79.23
2023-07-03T22:29:10.977Z,79.38
2023-07-03T22:31:57.358Z,79.61
2023-07-03T22:34:43.772Z,80.15
2023-07-03T22:37:30.807Z,80.45
2023-07-03T22:40:17.453Z,80.85
2023-07-03T22:43:04.106Z,81.24
2023-07-03T22:45:51.808Z,81.47
2023-07-03T22:48:43.123Z,81.47
2023-07-03T22:51:31.454Z,81.62
2023-07-03T22:54:18.885Z,81.88
2023-07-03T22:57:05.373Z,82.00
2023-07-03T22:59:53.543Z,82.33
2023-07-03T23:02:40.963Z,82.89
2023-07-03T23:05:27.573Z,82.90
2023-07-03T23:08:15.716Z,83.27
2023-07-03T23:11:02.769Z,83.67
2023-07-03T23:13:49.181Z,83.52
2023-07-03T23:16:35.576Z,83.39
2023-07-03T23:19:24.118Z,83.57
2023-07-03T23:22:10.364Z,83.48
2023-07-03T23:24:57.332Z,83.33
2023-07-03T23:27:45.568Z,83.76
2023-07-03T23:30:34.298Z,83.67
2023-07-03T23:33:22.332Z,83.89
2023-07-03T23:36:13.704Z,83.61
2023-07-03T23:39:03.971Z,83.02
2023-07-03T23:41:51.779Z,83.43
2023-07-03T23:44:38.625Z,83.16
2023-07-03T23:47:27.339Z,83.34
2023-07-03T23:50:14.538Z,83.39
2023-07-03T23:53:02.143Z,83.38
2023-07-03T23:55:49.354Z,83.34
2023-07-03T23:58:37.254Z,83.59
